EGOS - Shawbury
Distance from station: E 5mi, 14km
Updated: 10/21/2017 2:50pm
NOT Current
Light rain, Partly cloudy
Light rain, Partly cloudy
 Wind from WSW
Wind: WSW 16 mph , 26 km/h
Temperature: 54°F , 12°C
Dew Point: 48°F , 9°C
Humidity: 82%
Barometer: 29.53 inHg , 1000 hPa
Summary: Light Rain
Clouds: Partly Cloudy
Visibility: 4 miles , 6 km
Cloud details: Partly Cloudy 2000 ft
Partly Cloudy 3000 ft
2017/10/21 21:50 EGOS 212150Z AUTO 25014KT 6000 -RA SCT020/// SCT030/// 12/09 Q1000